Time;durP1;ratioP1;P1;durP2;ratioP2;P2;SDS_P1;SDS_P2;PMS_P1;PMS_P2;Temp;Humidity;BMP_temperature;BMP_pressure;BME280_temperature;BME280_humidity;BME280_pressure;Samples;Min_cycle;Max_cycle;Signal;HPM_P1;HPM_P2
2022/04/08 00:00:14;;;;;;;2.92;0.63;;;9.90;51.80;;;;;;5081472;28;20060;-41
2022/04/08 00:02:43;;;;;;;3.03;0.75;;;9.90;51.80;;;;;;5080695;28;20403;-40
2022/04/08 00:05:11;;;;;;;4.65;0.88;;;10.00;51.90;;;;;;5082251;28;20419;-42
2022/04/08 00:07:39;;;;;;;4.40;0.68;;;9.90;51.80;;;;;;5082552;28;20051;-41
2022/04/08 00:10:09;;;;;;;2.28;0.75;;;10.00;51.70;;;;;;5079499;28;20052;-41
2022/04/08 00:12:36;;;;;;;2.97;0.85;;;9.90;51.70;;;;;;5080201;28;20056;-40
2022/04/08 00:15:04;;;;;;;2.40;0.60;;;9.90;51.60;;;;;;5082144;28;20052;-40
2022/04/08 00:17:32;;;;;;;2.63;0.60;;;9.90;51.70;;;;;;5081753;28;20075;-40
2022/04/08 00:19:59;;;;;;;4.45;1.00;;;9.90;51.70;;;;;;5079524;28;20055;-42
2022/04/08 00:22:28;;;;;;;3.33;0.52;;;9.90;51.70;;;;;;5080356;28;20508;-42
2022/04/08 00:24:55;;;;;;;1.50;0.50;;;9.90;51.70;;;;;;5079029;28;20538;-41
2022/04/08 00:27:24;;;;;;;3.97;0.63;;;9.80;51.60;;;;;;5081644;28;20134;-40
2022/04/08 00:29:52;;;;;;;2.38;0.50;;;9.80;51.70;;;;;;5078676;28;20411;-40
2022/04/08 00:32:19;;;;;;;3.33;1.00;;;9.80;51.70;;;;;;5080171;28;20051;-40
2022/04/08 00:34:47;;;;;;;5.95;1.00;;;9.80;51.70;;;;;;5080651;28;20048;-40
2022/04/08 00:37:14;;;;;;;5.03;1.10;;;9.70;52.00;;;;;;5081537;28;21034;-40
2022/04/08 00:39:42;;;;;;;6.82;1.00;;;9.70;52.10;;;;;;5079397;28;20068;-40
2022/04/08 00:42:09;;;;;;;2.72;0.93;;;9.70;52.20;;;;;;5079756;28;20304;-41
2022/04/08 00:44:38;;;;;;;8.02;1.17;;;9.70;52.20;;;;;;5079031;28;20138;-41
2022/04/08 00:47:07;;;;;;;6.60;1.40;;;9.70;52.30;;;;;;5081049;28;20047;-40
2022/04/08 00:49:37;;;;;;;4.90;1.35;;;9.70;52.30;;;;;;5079735;28;20517;-41
2022/04/08 00:52:06;;;;;;;3.67;1.10;;;9.70;52.30;;;;;;5079184;28;20431;-41
2022/04/08 00:54:35;;;;;;;6.03;1.13;;;9.70;52.30;;;;;;5080613;28;20059;-40
2022/04/08 00:57:04;;;;;;;4.50;1.13;;;9.70;52.30;;;;;;5079501;28;20074;-41
2022/04/08 00:59:32;;;;;;;8.95;1.48;;;9.70;52.40;;;;;;5080797;28;20055;-40
2022/04/08 01:02:00;;;;;;;6.15;1.25;;;9.70;52.60;;;;;;5080115;28;20059;-42
2022/04/08 01:04:28;;;;;;;7.00;1.73;;;9.70;52.50;;;;;;5080047;28;20764;-41
2022/04/08 01:06:56;;;;;;;6.68;1.30;;;9.70;52.50;;;;;;5081327;28;20430;-40
2022/04/08 01:09:24;;;;;;;6.32;1.63;;;9.70;52.50;;;;;;5077521;28;20611;-41
2022/04/08 01:11:51;;;;;;;6.43;1.83;;;9.70;52.60;;;;;;5078458;28;20052;-40
2022/04/08 01:14:19;;;;;;;4.80;2.15;;;9.80;52.60;;;;;;5080285;28;20063;-41
2022/04/08 01:16:46;;;;;;;8.70;2.20;;;9.80;52.80;;;;;;5079506;28;20511;-40
2022/04/08 01:19:15;;;;;;;5.38;1.75;;;9.80;52.90;;;;;;5080889;28;20047;-41
2022/04/08 01:21:42;;;;;;;6.90;1.90;;;9.80;52.90;;;;;;5077922;28;20416;-42
2022/04/08 01:24:12;;;;;;;4.47;1.90;;;9.80;52.80;;;;;;5081974;28;20051;-41
2022/04/08 01:26:42;;;;;;;8.73;1.80;;;9.70;52.80;;;;;;5077583;28;20048;-41
2022/04/08 01:29:09;;;;;;;7.90;2.13;;;9.80;53.00;;;;;;5078809;28;20048;-40
2022/04/08 01:31:43;;;;;;;6.65;1.98;;;9.70;53.00;;;;;;5077700;28;20060;-41
2022/04/08 01:34:10;;;;;;;8.48;2.42;;;9.70;53.10;;;;;;5082441;28;20044;-42
2022/04/08 01:36:38;;;;;;;5.53;1.90;;;9.70;53.60;;;;;;5082034;28;20052;-41
2022/04/08 01:39:05;;;;;;;10.40;2.00;;;9.80;53.30;;;;;;5067775;28;20048;-41
2022/04/08 01:41:33;;;;;;;7.47;2.00;;;9.80;53.30;;;;;;5059499;28;20053;-41
2022/04/08 01:44:02;;;;;;;12.45;3.05;;;9.80;53.30;;;;;;5062278;28;20076;-42
2022/04/08 01:46:30;;;;;;;5.50;1.75;;;9.80;53.30;;;;;;5059574;28;20115;-41
2022/04/08 01:48:57;;;;;;;6.03;2.00;;;9.80;53.30;;;;;;5059271;28;20044;-41
2022/04/08 01:51:25;;;;;;;7.28;1.90;;;9.80;53.30;;;;;;5060742;28;20060;-41
2022/04/08 01:53:52;;;;;;;7.13;1.73;;;9.80;53.30;;;;;;5060290;28;20068;-41
2022/04/08 01:56:20;;;;;;;14.25;2.67;;;9.80;53.30;;;;;;5060479;28;20515;-41
2022/04/08 01:58:48;;;;;;;4.35;1.60;;;9.90;53.30;;;;;;5059927;28;20057;-43
2022/04/08 02:01:17;;;;;;;8.82;1.70;;;9.80;53.20;;;;;;5057655;28;20048;-41
2022/04/08 02:03:44;;;;;;;3.80;1.85;;;9.90;53.20;;;;;;5061712;28;20053;-41
2022/04/08 02:06:12;;;;;;;14.85;2.30;;;9.90;53.10;;;;;;5062137;28;20063;-41
2022/04/08 02:08:39;;;;;;;6.25;1.73;;;9.90;53.10;;;;;;5058256;28;20420;-41
2022/04/08 02:11:06;;;;;;;5.25;1.88;;;9.90;53.10;;;;;;5059484;28;20056;-41
2022/04/08 02:13:34;;;;;;;8.52;2.00;;;9.90;53.10;;;;;;5057401;28;20052;-41
2022/04/08 02:16:03;;;;;;;5.47;2.03;;;9.90;53.00;;;;;;5058751;28;20059;-41
2022/04/08 02:18:32;;;;;;;8.30;2.00;;;10.00;53.10;;;;;;5060113;28;20051;-41
2022/04/08 02:21:01;;;;;;;10.35;1.98;;;9.90;53.10;;;;;;5061769;28;20056;-41
2022/04/08 02:23:28;;;;;;;13.32;2.92;;;9.90;53.00;;;;;;5059075;28;20057;-40
2022/04/08 02:25:56;;;;;;;5.70;2.15;;;9.90;53.10;;;;;;5065173;28;20415;-41
2022/04/08 02:28:24;;;;;;;4.55;1.98;;;9.90;53.10;;;;;;5064176;28;21848;-41
2022/04/08 02:30:52;;;;;;;4.80;1.70;;;9.90;53.10;;;;;;5060516;28;20373;-41
2022/04/08 02:33:20;;;;;;;7.00;1.73;;;9.90;53.10;;;;;;5054708;28;20052;-44
2022/04/08 02:35:49;;;;;;;7.03;2.03;;;9.90;53.10;;;;;;5062647;28;20063;-41
2022/04/08 02:38:16;;;;;;;8.25;1.90;;;9.90;53.20;;;;;;5063211;28;20056;-41
2022/04/08 02:40:44;;;;;;;4.80;1.75;;;10.00;53.20;;;;;;5080218;28;20048;-41
2022/04/08 02:43:11;;;;;;;5.25;2.13;;;10.00;53.20;;;;;;5081508;28;20044;-41
2022/04/08 02:45:39;;;;;;;6.72;2.30;;;10.00;53.30;;;;;;5081032;28;20061;-42
2022/04/08 02:48:06;;;;;;;4.75;1.90;;;10.00;53.30;;;;;;5079211;28;20060;-41
2022/04/08 02:50:34;;;;;;;4.65;1.70;;;10.00;53.30;;;;;;5082579;28;20048;-41
2022/04/08 02:53:03;;;;;;;4.85;1.80;;;10.00;53.20;;;;;;5081131;28;21101;-40
2022/04/08 02:55:31;;;;;;;6.97;1.95;;;10.00;53.20;;;;;;5084295;28;20059;-40
2022/04/08 02:57:58;;;;;;;7.47;1.80;;;10.00;53.20;;;;;;5084761;28;20056;-41
2022/04/08 03:00:26;;;;;;;4.85;2.10;;;10.00;53.20;;;;;;5084912;28;20527;-41
2022/04/08 03:02:53;;;;;;;5.85;1.95;;;10.10;53.20;;;;;;5084925;28;20060;-41
2022/04/08 03:05:21;;;;;;;7.97;2.95;;;10.10;53.20;;;;;;5083367;28;20415;-40
2022/04/08 03:07:48;;;;;;;6.22;1.90;;;10.10;53.20;;;;;;5080257;28;20066;-41
2022/04/08 03:10:17;;;;;;;6.18;1.77;;;10.10;53.10;;;;;;5081355;28;20519;-42
2022/04/08 03:12:45;;;;;;;4.88;2.35;;;10.10;53.10;;;;;;5080723;28;20052;-41
2022/04/08 03:15:12;;;;;;;11.55;2.83;;;10.10;53.00;;;;;;5082289;28;20052;-41
2022/04/08 03:17:40;;;;;;;5.97;2.65;;;10.10;52.90;;;;;;5083342;28;20048;-42
2022/04/08 03:20:08;;;;;;;6.03;2.03;;;10.10;52.90;;;;;;5082077;28;20044;-45
2022/04/08 03:22:36;;;;;;;4.18;2.22;;;10.10;52.90;;;;;;5082615;28;20040;-41
2022/04/08 03:25:05;;;;;;;8.07;2.45;;;10.00;52.80;;;;;;5081767;28;20047;-40
2022/04/08 03:27:34;;;;;;;8.43;2.83;;;9.90;52.80;;;;;;5083228;28;20488;-42
2022/04/08 03:30:02;;;;;;;6.30;2.10;;;9.90;53.10;;;;;;5079627;28;20052;-41
2022/04/08 03:32:30;;;;;;;7.80;2.55;;;9.90;52.80;;;;;;5082051;28;20435;-41
2022/04/08 03:35:00;;;;;;;8.60;2.35;;;9.90;52.80;;;;;;5080674;28;20052;-41
2022/04/08 03:37:28;;;;;;;5.50;2.20;;;9.90;52.80;;;;;;5082070;28;20052;-41
2022/04/08 03:39:56;;;;;;;6.18;2.58;;;9.90;52.80;;;;;;5081560;28;20442;-41
2022/04/08 03:42:26;;;;;;;6.50;2.33;;;9.90;52.80;;;;;;5082185;28;20063;-41
2022/04/08 03:44:55;;;;;;;8.57;2.65;;;9.90;52.90;;;;;;5081398;28;20059;-41
2022/04/08 03:47:22;;;;;;;5.88;2.30;;;9.90;52.80;;;;;;5080742;28;20044;-41
2022/04/08 03:49:50;;;;;;;6.57;2.53;;;9.80;52.80;;;;;;5083532;28;20431;-41
2022/04/08 03:52:18;;;;;;;10.90;3.20;;;9.80;52.90;;;;;;5077352;28;20051;-41
2022/04/08 03:54:45;;;;;;;12.15;3.63;;;9.80;52.90;;;;;;5074284;28;20054;-42
2022/04/08 03:57:14;;;;;;;9.02;3.40;;;9.70;52.90;;;;;;5081056;28;20052;-41
2022/04/08 03:59:42;;;;;;;10.02;3.72;;;9.70;53.00;;;;;;5082462;28;20588;-41
2022/04/08 04:02:11;;;;;;;10.60;3.65;;;9.70;53.10;;;;;;5080238;28;20169;-41
2022/04/08 04:04:38;;;;;;;7.07;3.50;;;9.70;53.20;;;;;;5082440;28;20059;-41
2022/04/08 04:07:05;;;;;;;7.80;3.40;;;9.70;53.20;;;;;;5059999;28;20105;-41
2022/04/08 04:09:33;;;;;;;7.20;2.75;;;9.70;53.20;;;;;;5059092;28;20044;-41
2022/04/08 04:12:01;;;;;;;3.38;2.80;;;9.60;53.20;;;;;;5080013;28;20412;-41
2022/04/08 04:14:28;;;;;;;5.55;2.78;;;9.60;53.20;;;;;;5077659;28;20423;-40
2022/04/08 04:16:58;;;;;;;6.93;3.03;;;9.60;53.30;;;;;;5076909;28;20053;-40
2022/04/08 04:19:27;;;;;;;8.02;3.33;;;9.60;53.30;;;;;;5079177;28;20055;-41
2022/04/08 04:21:55;;;;;;;10.10;3.20;;;9.60;53.20;;;;;;5080921;28;20058;-43
2022/04/08 04:24:22;;;;;;;5.95;2.90;;;9.60;53.20;;;;;;5076237;28;20052;-41
2022/04/08 04:26:50;;;;;;;8.77;3.75;;;9.60;53.20;;;;;;5077565;28;20052;-41
2022/04/08 04:29:18;;;;;;;7.15;3.10;;;9.60;53.20;;;;;;5081335;28;20048;-41
2022/04/08 04:31:46;;;;;;;5.32;3.05;;;9.60;53.20;;;;;;5079524;28;20051;-41
2022/04/08 04:34:14;;;;;;;6.93;3.00;;;9.50;53.20;;;;;;5080905;28;20423;-41
2022/04/08 04:36:43;;;;;;;7.95;2.70;;;9.50;53.20;;;;;;5080339;28;20580;-41
2022/04/08 04:39:10;;;;;;;6.13;3.70;;;9.50;53.20;;;;;;5080184;28;20504;-41
2022/04/08 04:41:38;;;;;;;6.60;3.15;;;9.50;53.20;;;;;;5079007;28;20044;-40
2022/04/08 04:44:06;;;;;;;6.68;2.90;;;9.50;53.20;;;;;;5082157;28;20056;-42
2022/04/08 04:46:34;;;;;;;4.72;2.25;;;9.50;53.30;;;;;;5080644;28;20055;-42
2022/04/08 04:49:01;;;;;;;6.03;2.80;;;9.50;53.20;;;;;;5082570;28;20389;-41
2022/04/08 04:51:30;;;;;;;7.75;2.42;;;9.50;53.20;;;;;;5080651;28;20048;-41
2022/04/08 04:53:59;;;;;;;5.50;2.72;;;9.50;53.30;;;;;;5079559;28;20044;-41
2022/04/08 04:56:27;;;;;;;4.93;2.65;;;9.50;53.20;;;;;;5080885;28;20491;-41
2022/04/08 04:58:54;;;;;;;4.28;2.58;;;9.50;53.10;;;;;;5079760;28;20048;-42
2022/04/08 05:01:22;;;;;;;8.95;2.42;;;9.50;53.10;;;;;;5078519;28;20048;-41
2022/04/08 05:03:49;;;;;;;6.90;2.45;;;9.50;53.10;;;;;;5077048;28;20060;-41
2022/04/08 05:06:17;;;;;;;4.07;2.25;;;9.50;53.10;;;;;;5080813;28;20047;-44
2022/04/08 05:08:44;;;;;;;6.22;2.38;;;9.40;53.00;;;;;;5081315;28;20059;-41
2022/04/08 05:11:15;;;;;;;4.35;2.28;;;9.50;53.20;;;;;;5079618;28;20051;-42
2022/04/08 05:13:43;;;;;;;3.55;2.25;;;9.50;53.20;;;;;;5079938;28;21125;-41
2022/04/08 05:16:10;;;;;;;3.60;2.30;;;9.40;53.20;;;;;;5076881;28;20431;-41
2022/04/08 05:18:39;;;;;;;3.30;2.35;;;9.40;53.20;;;;;;5077694;28;20055;-41
2022/04/08 05:21:06;;;;;;;3.47;1.80;;;9.40;53.30;;;;;;5078577;28;20044;-42
2022/04/08 05:23:36;;;;;;;4.97;2.17;;;9.40;53.40;;;;;;5080302;28;20052;-42
2022/04/08 05:26:04;;;;;;;5.97;2.20;;;9.40;53.40;;;;;;5078114;28;20411;-41
2022/04/08 05:28:33;;;;;;;5.97;2.47;;;9.40;53.50;;;;;;5079540;28;20059;-42
2022/04/08 05:31:00;;;;;;;5.88;2.22;;;9.40;53.40;;;;;;5081297;28;20048;-42
2022/04/08 05:33:28;;;;;;;2.88;1.58;;;9.40;53.40;;;;;;5075530;28;20047;-43
2022/04/08 05:35:55;;;;;;;2.83;1.80;;;9.40;53.30;;;;;;5077632;28;20048;-41
2022/04/08 05:38:23;;;;;;;5.05;1.80;;;9.50;53.40;;;;;;5080095;28;20055;-41
2022/04/08 05:40:50;;;;;;;5.80;1.88;;;9.50;53.30;;;;;;5080109;28;20400;-42
2022/04/08 05:43:18;;;;;;;5.63;2.20;;;9.50;53.30;;;;;;5078618;28;20047;-43
2022/04/08 05:45:47;;;;;;;5.38;1.75;;;9.50;53.30;;;;;;5079364;28;20060;-41
2022/04/08 05:48:15;;;;;;;3.53;1.83;;;9.50;53.80;;;;;;5078705;28;20052;-41
2022/04/08 05:50:42;;;;;;;8.05;2.08;;;9.60;53.40;;;;;;5080807;28;20052;-42
2022/04/08 05:53:09;;;;;;;4.35;1.73;;;9.60;53.60;;;;;;5076450;28;20397;-41
2022/04/08 05:55:37;;;;;;;8.20;2.08;;;9.60;53.50;;;;;;5080482;28;20063;-42
2022/04/08 05:58:04;;;;;;;3.67;2.05;;;9.60;53.50;;;;;;5078789;28;20055;-43
2022/04/08 06:00:34;;;;;;;6.55;1.40;;;9.70;53.60;;;;;;5081976;28;20058;-42
2022/04/08 06:03:02;;;;;;;2.53;1.30;;;9.80;53.60;;;;;;5078513;28;20062;-42
2022/04/08 06:05:30;;;;;;;4.82;1.40;;;9.80;53.60;;;;;;5083723;28;20052;-42
2022/04/08 06:07:57;;;;;;;3.38;1.20;;;9.80;53.70;;;;;;5083657;28;20055;-41
2022/04/08 06:10:26;;;;;;;2.33;1.05;;;9.90;53.50;;;;;;5084899;28;20052;-44
2022/04/08 06:12:55;;;;;;;2.15;1.10;;;9.90;53.40;;;;;;5076371;28;20044;-42
2022/04/08 06:15:24;;;;;;;2.53;1.23;;;10.00;53.30;;;;;;5082916;28;20423;-42
2022/04/08 06:17:52;;;;;;;4.07;1.42;;;10.00;53.30;;;;;;5082262;28;20067;-42
2022/04/08 06:20:21;;;;;;;3.10;1.23;;;10.00;53.20;;;;;;5084387;28;20044;-42
2022/04/08 06:22:49;;;;;;;2.58;1.08;;;10.10;53.20;;;;;;5079287;28;20044;-42
2022/04/08 06:25:19;;;;;;;6.80;1.52;;;10.10;53.10;;;;;;5083595;28;20059;-42
2022/04/08 06:27:55;;;;;;;1.38;1.05;;;10.10;53.00;;;;;;5083935;28;20063;-42
2022/04/08 06:30:23;;;;;;;2.80;1.45;;;10.20;53.00;;;;;;5081325;28;20047;-42
2022/04/08 06:32:50;;;;;;;2.40;1.10;;;10.20;52.90;;;;;;5080912;28;20063;-42
2022/04/08 06:35:19;;;;;;;2.15;1.00;;;10.30;52.90;;;;;;5083221;28;20055;-41
2022/04/08 06:37:47;;;;;;;2.30;1.20;;;10.30;52.90;;;;;;5083679;28;20067;-42
2022/04/08 06:40:15;;;;;;;7.13;1.55;;;10.40;52.90;;;;;;5064597;28;20057;-42
2022/04/08 06:42:43;;;;;;;6.00;1.50;;;10.40;52.80;;;;;;5060312;28;20064;-42
2022/04/08 06:45:10;;;;;;;3.45;1.50;;;10.40;52.60;;;;;;5063439;28;20068;-42
2022/04/08 06:47:48;;;;;;;8.55;2.47;;;10.50;52.60;;;;;;5062608;28;20067;-42
2022/04/08 06:50:16;;;;;;;9.40;2.00;;;10.50;52.40;;;;;;5060468;28;20060;-42
2022/04/08 06:52:45;;;;;;;3.78;1.30;;;10.50;52.30;;;;;;5059243;28;20061;-41
2022/04/08 06:55:13;;;;;;;3.92;1.50;;;10.60;52.20;;;;;;5060591;28;20048;-42
2022/04/08 06:57:41;;;;;;;4.47;1.38;;;10.60;52.10;;;;;;5061142;28;20056;-41
2022/04/08 07:00:11;;;;;;;6.60;1.42;;;10.60;51.80;;;;;;5058673;28;20049;-42
2022/04/08 07:02:39;;;;;;;4.57;1.52;;;10.70;51.70;;;;;;5062470;28;20056;-42
2022/04/08 07:05:09;;;;;;;2.88;1.35;;;10.70;51.60;;;;;;5062606;28;20072;-41
2022/04/08 07:07:37;;;;;;;5.22;1.67;;;10.70;51.50;;;;;;5060415;28;20057;-42
2022/04/08 07:10:08;;;;;;;4.25;1.67;;;10.70;51.40;;;;;;5058228;28;20045;-42
2022/04/08 07:12:35;;;;;;;2.53;1.52;;;10.70;51.30;;;;;;5057355;28;20049;-41
2022/04/08 07:15:03;;;;;;;8.40;2.72;;;10.70;51.30;;;;;;5060411;28;20488;-42
2022/04/08 07:17:33;;;;;;;3.33;1.67;;;10.70;51.30;;;;;;5060233;28;20063;-42
2022/04/08 07:20:01;;;;;;;4.68;1.52;;;10.70;51.30;;;;;;5063598;28;20075;-43
2022/04/08 07:22:29;;;;;;;4.70;1.80;;;10.70;51.30;;;;;;5058110;28;20049;-47
2022/04/08 07:24:56;;;;;;;4.03;1.35;;;10.80;51.30;;;;;;5061654;28;20059;-41
2022/04/08 07:27:25;;;;;;;4.00;1.50;;;10.80;51.20;;;;;;5060912;28;20492;-41
2022/04/08 07:29:53;;;;;;;3.28;1.50;;;10.80;51.10;;;;;;5058672;28;20056;-43
2022/04/08 07:32:21;;;;;;;4.40;1.80;;;10.80;51.20;;;;;;5061214;28;20485;-41
2022/04/08 07:34:50;;;;;;;3.83;1.77;;;10.80;51.10;;;;;;5057568;28;20048;-41
2022/04/08 07:37:28;;;;;;;3.17;1.50;;;10.90;51.10;;;;;;5062570;28;20063;-42
2022/04/08 07:39:56;;;;;;;4.20;1.23;;;10.90;51.10;;;;;;5073214;28;20055;-41
2022/04/08 07:42:25;;;;;;;3.85;1.40;;;10.90;51.00;;;;;;5077855;28;20480;-44
2022/04/08 07:44:52;;;;;;;4.70;1.65;;;11.00;51.10;;;;;;5083405;28;20056;-41
2022/04/08 07:47:20;;;;;;;4.28;1.77;;;11.00;51.00;;;;;;5082972;28;20527;-41
2022/04/08 07:49:48;;;;;;;3.60;1.60;;;11.00;50.80;;;;;;5081261;28;20063;-42
2022/04/08 07:52:16;;;;;;;4.20;1.63;;;11.10;50.80;;;;;;5079430;28;20051;-42
2022/04/08 07:54:45;;;;;;;3.85;1.55;;;11.10;50.50;;;;;;5078210;28;20052;-41
2022/04/08 07:57:14;;;;;;;2.88;1.33;;;11.10;50.50;;;;;;5080671;28;20055;-42
2022/04/08 07:59:44;;;;;;;4.53;1.40;;;11.10;50.50;;;;;;5079111;28;20416;-44
2022/04/08 08:02:11;;;;;;;3.38;1.73;;;11.10;50.50;;;;;;5080301;28;20048;-42
2022/04/08 08:04:39;;;;;;;5.20;1.65;;;11.10;50.60;;;;;;5080676;28;20067;-41
2022/04/08 08:07:06;;;;;;;3.55;1.70;;;11.10;50.50;;;;;;5081962;28;20063;-46
2022/04/08 08:09:34;;;;;;;4.00;1.60;;;11.10;50.50;;;;;;5080378;28;20059;-42
2022/04/08 08:12:02;;;;;;;4.82;1.13;;;11.10;50.50;;;;;;5082050;28;20052;-41
2022/04/08 08:14:30;;;;;;;3.88;1.77;;;11.10;50.50;;;;;;5080697;28;20052;-42
2022/04/08 08:16:59;;;;;;;6.70;1.92;;;11.10;50.50;;;;;;5078345;28;20052;-41
2022/04/08 08:19:28;;;;;;;8.23;2.45;;;11.10;50.40;;;;;;5082761;28;20051;-42
2022/04/08 08:21:55;;;;;;;5.30;2.10;;;11.10;50.40;;;;;;5078384;28;20058;-41
2022/04/08 08:24:23;;;;;;;3.72;1.77;;;11.10;50.30;;;;;;5078162;28;20047;-44
2022/04/08 08:26:51;;;;;;;4.40;2.10;;;11.20;50.30;;;;;;5079923;28;20056;-42
2022/04/08 08:29:18;;;;;;;5.97;2.10;;;11.20;50.40;;;;;;5081099;28;20052;-42
2022/04/08 08:31:46;;;;;;;7.47;2.20;;;11.20;50.30;;;;;;5078653;28;20055;-43
2022/04/08 08:34:14;;;;;;;4.75;1.90;;;11.20;50.30;;;;;;5080716;28;20488;-41
2022/04/08 08:36:42;;;;;;;5.78;2.03;;;11.20;50.30;;;;;;5080902;28;20411;-42
2022/04/08 08:39:09;;;;;;;5.10;1.90;;;11.20;50.30;;;;;;5079006;28;20044;-42
2022/04/08 08:41:38;;;;;;;5.80;1.90;;;11.20;50.30;;;;;;5078816;28;20052;-42
2022/04/08 08:44:06;;;;;;;3.95;1.63;;;11.20;50.30;;;;;;5081051;28;20048;-42
2022/04/08 08:46:35;;;;;;;5.30;2.38;;;11.30;50.40;;;;;;5080627;28;20052;-42
2022/04/08 08:49:04;;;;;;;6.85;2.20;;;11.30;50.40;;;;;;5080159;28;20484;-41
2022/04/08 08:51:37;;;;;;;3.33;1.60;;;11.30;50.90;;;;;;5078764;28;20056;-42
2022/04/08 08:54:05;;;;;;;7.43;1.60;;;11.40;50.10;;;;;;5080129;28;20063;-42
2022/04/08 08:56:33;;;;;;;4.22;1.77;;;11.40;50.10;;;;;;5078739;28;20055;-42
2022/04/08 08:59:00;;;;;;;5.68;1.80;;;11.40;49.80;;;;;;5080400;28;20061;-41
2022/04/08 09:01:28;;;;;;;5.72;1.60;;;11.40;49.50;;;;;;5077224;28;20059;-41
2022/04/08 09:03:56;;;;;;;6.43;1.92;;;11.50;49.50;;;;;;5079034;28;20419;-42
2022/04/08 09:06:23;;;;;;;5.55;1.45;;;11.50;49.70;;;;;;5080708;28;20528;-42
2022/04/08 09:08:59;;;;;;;4.30;1.67;;;11.50;49.80;;;;;;5077048;28;20048;-42
2022/04/08 09:11:27;;;;;;;3.20;1.65;;;11.50;49.80;;;;;;5075448;28;20460;-43
2022/04/08 09:14:02;;;;;;;4.53;2.10;;;11.60;49.90;;;;;;5075891;28;20052;-42
2022/04/08 09:16:35;;;;;;;4.75;1.85;;;11.60;49.60;;;;;;5077894;28;20419;-42
2022/04/08 09:25:49;;;;;;;5.65;1.60;;;11.80;49.70;;;;;;5090579;28;20043;-41
2022/04/08 09:28:18;;;;;;;4.65;1.83;;;11.80;49.60;;;;;;5080745;28;20518;-41
2022/04/08 09:30:52;;;;;;;7.03;2.05;;;11.80;49.50;;;;;;5082581;28;20048;-41
2022/04/08 09:33:22;;;;;;;5.47;2.22;;;11.90;49.30;;;;;;5080199;28;20495;-42
2022/04/08 09:35:54;;;;;;;6.72;2.20;;;12.00;49.30;;;;;;5077680;28;20063;-41
2022/04/08 09:38:25;;;;;;;6.20;2.60;;;12.00;49.00;;;;;;5078613;28;20043;-44
2022/04/08 09:41:01;;;;;;;6.65;1.67;;;12.00;48.60;;;;;;5061700;28;20052;-42
2022/04/08 09:43:33;;;;;;;3.97;2.00;;;12.10;48.70;;;;;;5060559;28;20055;-42
2022/04/08 09:46:14;;;;;;;4.90;2.03;;;12.10;48.80;;;;;;5062154;28;20056;-42
2022/04/08 09:48:42;;;;;;;6.35;2.42;;;12.10;49.20;;;;;;5061113;28;20056;-46
2022/04/08 09:51:10;;;;;;;6.07;2.70;;;12.20;48.70;;;;;;5061370;28;20053;-43
2022/04/08 09:53:38;;;;;;;33.85;10.40;;;12.20;48.60;;;;;;5059613;28;20057;-42
2022/04/08 09:56:13;;;;;;;95.93;39.13;;;12.20;48.20;;;;;;5062046;28;20053;-42
2022/04/08 09:58:43;;;;;;;43.40;21.15;;;12.30;48.00;;;;;;5062507;28;20060;-42
2022/04/08 10:01:11;;;;;;;14.65;6.03;;;12.30;47.90;;;;;;5062044;28;20053;-42
2022/04/08 10:03:40;;;;;;;27.52;13.75;;;12.30;47.70;;;;;;5061457;28;20049;-42
2022/04/08 10:06:09;;;;;;;12.48;4.82;;;12.30;47.60;;;;;;5062312;28;20063;-41
2022/04/08 10:08:37;;;;;;;18.88;9.77;;;12.30;47.40;;;;;;5060289;28;20048;-43
2022/04/08 10:11:11;;;;;;;18.42;9.55;;;12.30;47.40;;;;;;5061237;28;20056;-41
2022/04/08 10:13:50;;;;;;;21.73;10.93;;;12.30;47.50;;;;;;5058411;28;20055;-41
2022/04/08 10:16:19;;;;;;;18.42;10.15;;;12.30;47.50;;;;;;5058028;28;20416;-42
2022/04/08 10:18:48;;;;;;;17.23;8.20;;;12.30;47.60;;;;;;5059521;28;20048;-41
2022/04/08 10:21:17;;;;;;;11.75;4.78;;;12.30;47.70;;;;;;5059118;28;20063;-41
2022/04/08 10:23:49;;;;;;;11.00;3.40;;;12.30;47.70;;;;;;5061394;28;20044;-42
2022/04/08 10:26:20;;;;;;;7.50;3.30;;;12.30;47.80;;;;;;5060516;28;20702;-43
2022/04/08 10:28:48;;;;;;;7.47;2.95;;;12.30;47.80;;;;;;5058765;28;20412;-41
2022/04/08 10:31:18;;;;;;;6.38;2.50;;;12.30;47.80;;;;;;5059274;28;20052;-43
2022/04/08 10:33:56;;;;;;;9.07;4.65;;;12.20;47.80;;;;;;5059939;28;20053;-46
2022/04/08 10:36:35;;;;;;;8.77;2.95;;;12.20;47.90;;;;;;5061459;28;20056;-42
2022/04/08 10:39:13;;;;;;;9.90;2.67;;;12.20;48.10;;;;;;5060864;28;20064;-42
2022/04/08 10:41:53;;;;;;;7.60;2.45;;;12.20;48.30;;;;;;5058662;28;20500;-42
2022/04/08 10:44:36;;;;;;;9.45;2.25;;;12.20;48.50;;;;;;5062306;28;20071;-42
2022/04/08 10:47:10;;;;;;;5.83;2.13;;;12.10;48.80;;;;;;5062832;28;20457;-41
2022/04/08 10:49:49;;;;;;;6.63;2.13;;;12.10;48.90;;;;;;5062539;28;20045;-42
2022/04/08 10:52:21;;;;;;;5.15;2.03;;;12.10;49.30;;;;;;5059775;28;20044;-43
2022/04/08 10:54:49;;;;;;;8.02;2.50;;;12.10;49.40;;;;;;5062245;28;20123;-42
2022/04/08 10:57:33;;;;;;;10.50;2.20;;;12.10;49.60;;;;;;5064177;28;20052;-43
2022/04/08 11:00:04;;;;;;;4.97;1.83;;;12.10;49.60;;;;;;5064802;28;20409;-41
2022/04/08 11:02:35;;;;;;;9.30;2.85;;;12.20;49.80;;;;;;5062858;28;20068;-41
2022/04/08 11:05:03;;;;;;;9.07;2.42;;;12.10;49.90;;;;;;5064654;28;20060;-41
2022/04/08 11:07:32;;;;;;;8.45;2.95;;;12.20;50.00;;;;;;5060728;28;20548;-41
2022/04/08 11:10:00;;;;;;;9.80;3.67;;;12.20;50.10;;;;;;5062490;28;20048;-42
2022/04/08 11:12:30;;;;;;;13.18;3.45;;;12.20;50.20;;;;;;5057990;28;20067;-44
2022/04/08 11:14:59;;;;;;;8.25;2.47;;;12.20;50.30;;;;;;5037179;28;20059;-42
2022/04/08 11:17:34;;;;;;;6.55;2.25;;;12.20;50.10;;;;;;5060335;28;20526;-41
2022/04/08 11:20:04;;;;;;;6.80;2.40;;;12.20;50.00;;;;;;5063032;28;20057;-42
2022/04/08 11:22:39;;;;;;;8.50;1.83;;;12.30;50.10;;;;;;5058163;28;20511;-41
2022/04/08 11:25:08;;;;;;;4.47;1.30;;;12.30;49.40;;;;;;5059634;28;20048;-42
2022/04/08 11:27:38;;;;;;;3.40;1.38;;;12.30;48.90;;;;;;5062049;28;20056;-41
2022/04/08 11:30:09;;;;;;;3.47;1.35;;;12.30;48.40;;;;;;5062698;28;20048;-42
2022/04/08 11:32:39;;;;;;;8.23;1.95;;;12.30;48.60;;;;;;5062333;28;20135;-42
2022/04/08 11:35:13;;;;;;;4.38;1.38;;;12.30;48.80;;;;;;5063655;28;20052;-41
2022/04/08 11:37:41;;;;;;;4.57;1.50;;;12.20;48.50;;;;;;5064145;28;20049;-42
2022/04/08 11:40:16;;;;;;;6.03;1.63;;;12.20;48.40;;;;;;5062140;28;20531;-42
2022/04/08 11:42:45;;;;;;;5.30;2.05;;;12.20;48.50;;;;;;5060718;28;20048;-42
2022/04/08 11:45:13;;;;;;;10.57;2.42;;;12.20;48.60;;;;;;5054216;28;20519;-43
2022/04/08 11:47:47;;;;;;;4.72;1.80;;;12.30;48.70;;;;;;5059829;28;20059;-44
2022/04/08 11:50:23;;;;;;;5.30;2.30;;;12.20;48.60;;;;;;5058158;28;20052;-42
2022/04/08 11:52:57;;;;;;;6.30;3.55;;;12.20;48.70;;;;;;5062317;28;20048;-42
2022/04/08 11:55:26;;;;;;;9.27;2.47;;;12.20;48.90;;;;;;5062444;28;20060;-41
2022/04/08 11:57:56;;;;;;;6.00;2.22;;;12.10;49.00;;;;;;5062959;28;20048;-45
2022/04/08 12:00:29;;;;;;;5.65;2.05;;;12.10;49.20;;;;;;5063767;28;20060;-40
2022/04/08 12:02:58;;;;;;;7.93;1.95;;;12.00;49.20;;;;;;5062320;28;20048;-41
2022/04/08 12:05:29;;;;;;;3.03;1.25;;;12.00;49.40;;;;;;5063385;28;20056;-41
2022/04/08 12:07:59;;;;;;;5.35;1.48;;;11.90;49.40;;;;;;5063527;28;20063;-41
2022/04/08 12:10:27;;;;;;;3.22;1.50;;;11.80;49.00;;;;;;5062723;28;20416;-41
2022/04/08 12:12:57;;;;;;;3.50;1.77;;;11.80;48.80;;;;;;5059805;28;20067;-41
2022/04/08 12:15:25;;;;;;;4.20;1.90;;;11.70;48.70;;;;;;5063347;28;20059;-41
2022/04/08 12:17:55;;;;;;;2.38;0.98;;;11.70;48.70;;;;;;5062959;28;20060;-41
2022/04/08 12:20:24;;;;;;;2.88;0.80;;;11.60;48.70;;;;;;5063566;28;20412;-41
2022/04/08 12:22:52;;;;;;;3.33;1.10;;;11.60;48.60;;;;;;5061371;28;20053;-41
2022/04/08 12:25:21;;;;;;;2.60;0.90;;;11.60;48.50;;;;;;5062429;28;20056;-42
2022/04/08 12:27:58;;;;;;;3.55;0.93;;;11.50;48.60;;;;;;5062649;28;20067;-41
2022/04/08 12:30:29;;;;;;;2.70;1.38;;;11.50;48.60;;;;;;5063466;28;20052;-41
2022/04/08 12:32:57;;;;;;;2.97;1.08;;;11.40;48.70;;;;;;5060301;28;20506;-41
2022/04/08 12:35:25;;;;;;;1.55;0.77;;;11.40;48.80;;;;;;5061614;28;20416;-41
2022/04/08 12:37:52;;;;;;;4.53;1.75;;;11.30;48.70;;;;;;5062724;28;20060;-41
2022/04/08 12:40:20;;;;;;;4.03;1.02;;;11.30;48.70;;;;;;5078798;28;20052;-42
2022/04/08 12:42:47;;;;;;;1.23;0.57;;;11.20;48.70;;;;;;5080311;28;20079;-46
2022/04/08 12:45:16;;;;;;;1.95;0.93;;;11.20;48.60;;;;;;5083096;28;20048;-42
2022/04/08 12:47:44;;;;;;;2.30;1.13;;;11.20;48.50;;;;;;5083013;28;20056;-41
2022/04/08 12:50:11;;;;;;;2.70;1.77;;;11.20;48.50;;;;;;5081664;28;20055;-41
2022/04/08 12:52:41;;;;;;;3.50;1.70;;;11.10;48.40;;;;;;5080888;28;20055;-42
2022/04/08 12:55:09;;;;;;;2.95;1.35;;;11.10;48.40;;;;;;5081765;28;20055;-41
2022/04/08 12:57:37;;;;;;;2.03;1.42;;;11.10;48.50;;;;;;5082757;28;20044;-41
2022/04/08 13:00:11;;;;;;;3.00;1.75;;;11.10;48.50;;;;;;5083478;28;21030;-41
2022/04/08 13:02:41;;;;;;;2.30;0.98;;;11.10;48.40;;;;;;5082476;28;20071;-41
2022/04/08 13:05:09;;;;;;;2.53;1.60;;;11.10;48.50;;;;;;5082575;28;20051;-41